Time;durP1;ratioP1;P1;durP2;ratioP2;P2;SDS_P1;SDS_P2;PMS_P1;PMS_P2;Temp;Humidity;BMP_temperature;BMP_pressure;BME280_temperature;BME280_humidity;BME280_pressure;Samples;Min_cycle;Max_cycle;Signal;HPM_P1;HPM_P2
2022/05/24 00:00:00;;;;;;;39.95;21.88;;;16.20;84.20;;;;;;5114643;28;20410;-64
2022/05/24 00:02:25;;;;;;;37.72;22.10;;;16.20;84.30;;;;;;5115587;28;20040;-64
2022/05/24 00:04:51;;;;;;;41.95;22.50;;;16.10;85.10;;;;;;5115416;28;20028;-65
2022/05/24 00:07:17;;;;;;;38.95;22.42;;;16.10;84.40;;;;;;5114364;28;20029;-65
2022/05/24 00:09:42;;;;;;;36.95;22.52;;;16.10;84.60;;;;;;5115355;28;20024;-64
2022/05/24 00:12:08;;;;;;;39.28;22.95;;;16.10;84.60;;;;;;5115315;28;20036;-64
2022/05/24 00:17:18;;;;;;;40.90;22.95;;;16.00;85.30;;;;;;5115358;28;20039;-64
2022/05/24 00:19:44;;;;;;;38.70;22.45;;;16.00;84.90;;;;;;5115181;28;20028;-65
2022/05/24 00:22:09;;;;;;;40.72;22.23;;;16.00;84.60;;;;;;5114052;28;20028;-65
2022/05/24 00:24:35;;;;;;;41.95;22.80;;;16.10;84.30;;;;;;5114052;28;20028;-64
2022/05/24 00:27:00;;;;;;;38.33;22.20;;;16.00;84.10;;;;;;5114817;28;20059;-65
2022/05/24 00:29:26;;;;;;;37.75;21.17;;;16.10;83.60;;;;;;5114920;28;20050;-65
2022/05/24 00:31:52;;;;;;;37.70;21.30;;;16.00;83.80;;;;;;5113931;28;20087;-65
2022/05/24 00:34:18;;;;;;;37.45;22.35;;;16.00;83.90;;;;;;5114904;28;20024;-64
2022/05/24 00:36:44;;;;;;;39.05;21.63;;;15.90;84.00;;;;;;5114873;28;20031;-65
2022/05/24 00:39:09;;;;;;;35.70;20.65;;;16.00;83.70;;;;;;5114761;28;20058;-64
2022/05/24 00:41:40;;;;;;;39.47;21.48;;;15.90;83.60;;;;;;5113853;28;20043;-65
2022/05/24 00:44:19;;;;;;;36.13;19.80;;;15.90;83.60;;;;;;5114791;28;20020;-65
2022/05/24 00:46:56;;;;;;;31.65;17.85;;;15.90;83.30;;;;;;5114704;28;20043;-64
2022/05/24 00:49:34;;;;;;;30.23;15.82;;;15.90;83.20;;;;;;5114829;28;20032;-65
2022/05/24 00:52:15;;;;;;;29.02;16.20;;;15.80;83.20;;;;;;5114030;28;20092;-64
2022/05/24 00:54:42;;;;;;;26.02;15.20;;;15.70;83.10;;;;;;5114549;28;20020;-64
2022/05/24 00:57:32;;;;;;;23.70;14.15;;;15.70;83.00;;;;;;5114504;28;20044;-64
2022/05/24 01:00:18;;;;;;;23.55;14.27;;;15.70;82.40;;;;;;5114483;28;20024;-64
2022/05/24 01:02:45;;;;;;;22.40;12.95;;;15.70;82.40;;;;;;5114508;28;20024;-64
2022/05/24 01:05:14;;;;;;;21.77;12.55;;;15.70;82.20;;;;;;5114317;28;20040;-64
2022/05/24 01:07:40;;;;;;;19.83;12.32;;;15.70;82.00;;;;;;5114280;28;20031;-65
2022/05/24 01:10:12;;;;;;;21.23;11.82;;;15.60;81.80;;;;;;5113187;28;20024;-64
2022/05/24 01:12:53;;;;;;;18.20;11.20;;;15.60;81.60;;;;;;5114400;28;20020;-65
2022/05/24 01:15:20;;;;;;;21.08;11.55;;;15.60;81.80;;;;;;5114334;28;20043;-65
2022/05/24 01:17:48;;;;;;;19.17;10.98;;;15.50;81.90;;;;;;5113073;28;20091;-65
2022/05/24 01:20:14;;;;;;;23.80;12.32;;;15.60;82.70;;;;;;5114033;28;20034;-64
2022/05/24 01:23:01;;;;;;;20.20;11.57;;;15.50;81.80;;;;;;5114045;28;20032;-64
2022/05/24 01:25:30;;;;;;;19.08;11.65;;;15.50;81.70;;;;;;5113807;28;20035;-66
2022/05/24 01:27:56;;;;;;;21.80;11.10;;;15.50;82.00;;;;;;5113976;28;20031;-64
2022/05/24 01:30:22;;;;;;;19.50;11.30;;;15.40;81.70;;;;;;5113118;28;20024;-64
2022/05/24 01:38:24;;;;;;;17.35;10.52;;;15.30;81.90;;;;;;5113877;28;20047;-64
2022/05/24 01:40:51;;;;;;;;;;;15.30;81.80;;;;;;5114184;28;20032;-64
2022/05/24 01:43:17;;;;;;;;;;;15.20;82.00;;;;;;5114119;28;19904;-65
2022/05/24 01:45:46;;;;;;;;;;;15.10;82.30;;;;;;5114059;28;19908;-65
2022/05/24 01:48:13;;;;;;;;;;;15.00;82.30;;;;;;5113045;28;20008;-65
2022/05/24 01:50:40;;;;;;;;;;;14.90;81.70;;;;;;5114021;28;19943;-65
2022/05/24 01:53:07;;;;;;;;;;;14.90;81.80;;;;;;5114026;28;20003;-65
2022/05/24 01:55:36;;;;;;;;;;;14.90;81.50;;;;;;5113992;28;19904;-65
2022/05/24 01:58:04;;;;;;;;;;;14.90;81.30;;;;;;5114048;28;19911;-65
2022/05/24 02:00:30;;;;;;;;;;;14.90;81.40;;;;;;5113931;28;19982;-65
2022/05/24 02:02:55;;;;;;;;;;;14.90;81.10;;;;;;5113436;28;19916;-65
2022/05/24 02:05:32;;;;;;;;;;;14.90;80.90;;;;;;5112219;28;19919;-64
2022/05/24 02:07:58;;;;;;;;;;;14.90;80.80;;;;;;5113828;28;19904;-65
2022/05/24 02:10:24;;;;;;;;;;;14.90;80.80;;;;;;5113817;28;19912;-64
2022/05/24 02:12:54;;;;;;;;;;;14.80;80.80;;;;;;5113790;28;19904;-64
2022/05/24 02:15:31;;;;;;;;;;;14.80;80.90;;;;;;5113762;28;19904;-64
2022/05/24 02:18:01;;;;;;;;;;;14.70;80.90;;;;;;5113893;28;19904;-65
2022/05/24 02:20:34;;;;;;;;;;;14.70;80.70;;;;;;5113739;28;19903;-64
2022/05/24 02:23:00;;;;;;;;;;;14.70;80.70;;;;;;5113821;28;19929;-65
2022/05/24 02:25:25;;;;;;;;;;;14.60;80.70;;;;;;5113460;28;19908;-68
2022/05/24 02:27:51;;;;;;;;;;;14.60;80.60;;;;;;5113546;28;19930;-65
2022/05/24 02:30:18;;;;;;;;;;;14.60;80.60;;;;;;5113594;28;20371;-65
2022/05/24 02:32:44;;;;;;;;;;;14.60;80.50;;;;;;5113582;28;19904;-64
2022/05/24 02:35:10;;;;;;;;;;;14.50;80.10;;;;;;5113559;28;19911;-64
2022/05/24 02:37:35;;;;;;;;;;;14.40;79.80;;;;;;5113570;28;19904;-64
2022/05/24 02:42:46;;;;;;;;;;;14.40;79.80;;;;;;5113748;28;19915;-65
2022/05/24 02:45:11;;;;;;;;;;;14.40;79.70;;;;;;5113606;28;19912;-65
2022/05/24 02:47:37;;;;;;;;;;;14.40;79.80;;;;;;5113478;28;19908;-65
2022/05/24 02:50:03;;;;;;;;;;;14.40;79.70;;;;;;5113410;28;19911;-65
2022/05/24 02:52:29;;;;;;;;;;;14.30;79.60;;;;;;5113368;28;19904;-65
2022/05/24 02:54:56;;;;;;;;;;;14.30;79.80;;;;;;5113387;28;19911;-65
2022/05/24 02:57:23;;;;;;;;;;;14.30;80.10;;;;;;5113385;28;19971;-65
2022/05/24 02:59:48;;;;;;;;;;;14.30;80.10;;;;;;5113347;28;19904;-64
2022/05/24 03:02:14;;;;;;;;;;;14.30;80.20;;;;;;5113320;28;19915;-64
2022/05/24 03:04:39;;;;;;;;;;;14.30;80.30;;;;;;5113217;28;19919;-65
2022/05/24 03:09:49;;;;;;;;;;;14.30;79.80;;;;;;5113431;28;19915;-64
2022/05/24 03:14:59;;;;;;;;;;;14.40;79.50;;;;;;5114264;28;19915;-65
2022/05/24 03:17:25;;;;;;;;;;;14.40;79.40;;;;;;5116907;28;19908;-64
2022/05/24 03:19:51;;;;;;;;;;;14.30;79.30;;;;;;5116955;28;19908;-64
2022/05/24 03:22:17;;;;;;;;;;;14.30;79.40;;;;;;5116775;28;19911;-64
2022/05/24 03:24:42;;;;;;;;;;;14.20;79.40;;;;;;5116643;28;19912;-64
2022/05/24 03:27:11;;;;;;;;;;;14.20;79.60;;;;;;5116476;28;19941;-64
2022/05/24 03:29:41;;;;;;;;;;;14.20;79.70;;;;;;5116586;28;19908;-64
2022/05/24 03:32:07;;;;;;;;;;;14.20;79.90;;;;;;5116613;28;19911;-64
2022/05/24 03:34:34;;;;;;;;;;;14.10;80.00;;;;;;5116556;28;19904;-64
2022/05/24 03:36:59;;;;;;;;;;;14.20;80.10;;;;;;5116498;28;19904;-64
2022/05/24 03:39:25;;;;;;;;;;;14.10;80.30;;;;;;5116389;28;19908;-64
2022/05/24 03:41:50;;;;;;;;;;;14.10;80.60;;;;;;5115428;28;19908;-64
2022/05/24 03:44:16;;;;;;;;;;;14.10;80.30;;;;;;5116408;28;19992;-64
2022/05/24 03:46:42;;;;;;;;;;;14.10;80.50;;;;;;5115308;28;19909;-64
2022/05/24 03:49:08;;;;;;;;;;;14.10;80.60;;;;;;5116201;28;19915;-64
2022/05/24 03:51:33;;;;;;;;;;;14.00;81.40;;;;;;5116196;28;19904;-64
2022/05/24 03:53:59;;;;;;;;;;;14.10;80.60;;;;;;5116166;28;19904;-64
2022/05/24 03:56:25;;;;;;;;;;;14.10;80.70;;;;;;5115054;28;19936;-64
2022/05/24 03:58:50;;;;;;;;;;;14.10;80.80;;;;;;5116030;28;20378;-63
2022/05/24 04:01:16;;;;;;;;;;;14.10;80.90;;;;;;5115959;28;19939;-64
2022/05/24 04:03:41;;;;;;;;;;;14.10;81.00;;;;;;5114898;28;19994;-64
2022/05/24 04:06:07;;;;;;;;;;;14.10;80.90;;;;;;5115836;28;19908;-64
2022/05/24 04:08:33;;;;;;;;;;;14.10;80.80;;;;;;5115991;28;19908;-64
2022/05/24 04:11:05;;;;;;;;;;;14.00;80.90;;;;;;5115958;28;19979;-64
2022/05/24 04:13:31;;;;;;;;;;;14.00;80.80;;;;;;5115806;28;19929;-64
2022/05/24 04:15:56;;;;;;;;;;;14.00;81.10;;;;;;5115749;28;19908;-64
2022/05/24 04:18:22;;;;;;;;;;;14.00;81.30;;;;;;5114724;28;19908;-64
2022/05/24 04:20:47;;;;;;;;;;;13.90;81.20;;;;;;5114530;28;19926;-64
2022/05/24 04:23:14;;;;;;;;;;;13.90;81.30;;;;;;5115545;28;19915;-64
2022/05/24 04:25:40;;;;;;;;;;;14.00;81.60;;;;;;5115255;28;19930;-64
2022/05/24 04:28:05;;;;;;;;;;;14.00;81.80;;;;;;5114583;28;19914;-64
2022/05/24 04:30:31;;;;;;;;;;;14.00;81.50;;;;;;5115426;28;20355;-64
2022/05/24 04:32:56;;;;;;;;;;;13.90;81.40;;;;;;5115376;28;19908;-64
2022/05/24 04:35:22;;;;;;;;;;;14.00;81.70;;;;;;5115336;28;19905;-64
2022/05/24 04:37:47;;;;;;;;;;;13.90;81.20;;;;;;5115252;28;19903;-64
2022/05/24 04:40:13;;;;;;;;;;;14.00;81.40;;;;;;5115411;28;19911;-65
2022/05/24 04:42:38;;;;;;;;;;;14.00;81.10;;;;;;5115315;28;19950;-64
2022/05/24 04:45:06;;;;;;;;;;;14.00;81.40;;;;;;5115132;28;20452;-64
2022/05/24 04:47:32;;;;;;;;;;;13.90;81.90;;;;;;5115054;28;20010;-64
2022/05/24 04:49:59;;;;;;;;;;;13.90;82.40;;;;;;5114884;28;19904;-66
2022/05/24 04:52:27;;;;;;;;;;;13.90;82.00;;;;;;5115113;28;19910;-64
2022/05/24 04:54:52;;;;;;;;;;;13.90;82.20;;;;;;5115014;28;19959;-65
2022/05/24 04:57:18;;;;;;;;;;;13.90;81.80;;;;;;5114892;28;19918;-65
2022/05/24 04:59:44;;;;;;;;;;;13.90;81.90;;;;;;5114988;28;19908;-64
2022/05/24 05:02:09;;;;;;;;;;;13.90;81.90;;;;;;5114809;28;19962;-64
2022/05/24 05:04:36;;;;;;;;;;;13.90;81.70;;;;;;5114708;28;19971;-65
2022/05/24 05:07:01;;;;;;;;;;;13.90;81.80;;;;;;5114741;28;19908;-65
2022/05/24 05:09:34;;;;;;;;;;;13.90;81.50;;;;;;5114723;28;19914;-64
2022/05/24 05:12:07;;;;;;;;;;;13.90;81.40;;;;;;5113629;28;19911;-65
2022/05/24 05:14:32;;;;;;;;;;;13.90;81.80;;;;;;5114636;28;19908;-65
2022/05/24 05:16:58;;;;;;;;;;;13.90;81.50;;;;;;5114549;28;19931;-65
2022/05/24 05:19:24;;;;;;;;;;;13.90;81.50;;;;;;5114622;28;19908;-65
2022/05/24 05:21:49;;;;;;;;;;;13.90;81.50;;;;;;5114514;28;19943;-65
2022/05/24 05:24:15;;;;;;;;;;;13.90;82.30;;;;;;5114358;28;19904;-65
2022/05/24 05:26:40;;;;;;;;;;;13.90;82.20;;;;;;5114242;28;19935;-65
2022/05/24 05:29:06;;;;;;;;;;;13.80;81.60;;;;;;5114301;28;19915;-64
2022/05/24 05:31:32;;;;;;;;;;;13.80;81.30;;;;;;5114297;28;19915;-64
2022/05/24 05:33:58;;;;;;;;;;;13.80;81.90;;;;;;5113226;28;19915;-65
2022/05/24 05:36:24;;;;;;;;;;;13.80;81.70;;;;;;5114239;28;19910;-65
2022/05/24 05:38:49;;;;;;;;;;;13.80;81.80;;;;;;5114023;28;20371;-65
2022/05/24 05:41:16;;;;;;;;;;;13.80;81.70;;;;;;5114142;28;19961;-65
2022/05/24 05:43:41;;;;;;;;;;;13.80;81.30;;;;;;5114231;28;19904;-65
2022/05/24 05:46:08;;;;;;;;;;;13.90;81.50;;;;;;5114001;28;19988;-65
2022/05/24 05:48:34;;;;;;;;;;;13.90;81.50;;;;;;5114123;28;19908;-65
2022/05/24 05:51:00;;;;;;;;;;;13.90;80.70;;;;;;5114067;28;19904;-65
2022/05/24 05:53:25;;;;;;;;;;;13.90;81.00;;;;;;5114025;28;19908;-65
2022/05/24 05:55:51;;;;;;;;;;;13.80;81.10;;;;;;5113929;28;19908;-65
2022/05/24 05:58:16;;;;;;;;;;;13.90;81.20;;;;;;5113981;28;19908;-65
2022/05/24 06:00:42;;;;;;;;;;;13.80;81.20;;;;;;5112876;28;19915;-65
2022/05/24 06:03:08;;;;;;;;;;;13.80;81.10;;;;;;5112862;28;19930;-65
2022/05/24 06:05:34;;;;;;;;;;;13.80;80.90;;;;;;5113803;28;20005;-65
2022/05/24 06:07:59;;;;;;;;;;;13.80;80.90;;;;;;5112787;28;19904;-65
2022/05/24 06:10:25;;;;;;;;;;;13.80;81.50;;;;;;5113732;28;19964;-65
2022/05/24 06:12:51;;;;;;;;;;;13.80;81.20;;;;;;5113839;28;19907;-65
2022/05/24 06:15:17;;;;;;;;;;;13.80;81.70;;;;;;5113734;28;19930;-65
2022/05/24 06:17:44;;;;;;;;;;;13.80;80.80;;;;;;5113750;28;19959;-65
2022/05/24 06:20:09;;;;;;;;;;;13.80;81.30;;;;;;5113839;28;19942;-65
2022/05/24 06:22:35;;;;;;;;;;;13.80;81.30;;;;;;5113824;28;19908;-65
2022/05/24 06:25:00;;;;;;;;;;;13.90;80.90;;;;;;5113582;28;19916;-65
2022/05/24 06:27:26;;;;;;;;;;;13.80;81.50;;;;;;5113488;28;19919;-65
2022/05/24 06:29:51;;;;;;;;;;;13.80;80.20;;;;;;5113501;28;19908;-65
2022/05/24 06:32:17;;;;;;;;;;;13.80;80.80;;;;;;5113586;28;19942;-65
2022/05/24 06:34:42;;;;;;;;;;;13.90;81.10;;;;;;5113580;28;19908;-65
2022/05/24 06:37:08;;;;;;;;;;;13.90;81.00;;;;;;5113577;28;20263;-65
2022/05/24 06:39:33;;;;;;;;;;;13.90;79.70;;;;;;5113507;28;19930;-65
2022/05/24 06:41:59;;;;;;;;;;;13.90;80.00;;;;;;5112456;28;19908;-65
2022/05/24 06:44:25;;;;;;;;;;;14.00;80.30;;;;;;5112411;28;19905;-65
2022/05/24 06:46:50;;;;;;;;;;;14.00;79.60;;;;;;5113424;28;19912;-65
2022/05/24 06:49:16;;;;;;;;;;;14.00;79.40;;;;;;5113428;28;19904;-65
2022/05/24 06:51:42;;;;;;;;;;;13.90;79.40;;;;;;5117129;28;19908;-65
2022/05/24 06:54:08;;;;;;;;;;;14.00;81.50;;;;;;5117285;28;19911;-65
2022/05/24 06:56:33;;;;;;;;;;;14.20;80.30;;;;;;5116231;28;19908;-65
2022/05/24 07:04:27;;;;;;;;;;;14.20;78.70;;;;;;5117170;28;19950;-65
2022/05/24 07:06:53;;;;;;;;;;;14.30;79.00;;;;;;5117059;28;19904;-65
2022/05/24 07:09:18;;;;;;;;;;;14.30;78.20;;;;;;5115929;28;19931;-65
2022/05/24 07:11:44;;;;;;;;;;;14.40;77.80;;;;;;5116978;28;19947;-65
2022/05/24 07:14:09;;;;;;;;;;;14.40;77.90;;;;;;5116887;28;19974;-65
2022/05/24 07:16:35;;;;;;;;;;;14.50;77.20;;;;;;5115815;28;19908;-65
2022/05/24 07:19:00;;;;;;;;;;;14.60;77.50;;;;;;5116814;28;19912;-65
2022/05/24 07:21:26;;;;;;;;;;;14.60;77.30;;;;;;5115797;28;19975;-65
2022/05/24 07:23:51;;;;;;;;;;;14.70;78.20;;;;;;5116761;28;19914;-65
2022/05/24 07:26:20;;;;;;;;;;;14.70;77.50;;;;;;5116518;28;19920;-65
2022/05/24 07:28:46;;;;;;;;;;;14.70;76.50;;;;;;5115588;28;19904;-65
2022/05/24 07:31:12;;;;;;;;;;;14.70;75.40;;;;;;5116639;28;19904;-65
2022/05/24 07:33:37;;;;;;;;;;;14.80;75.30;;;;;;5116543;28;19939;-65
2022/05/24 07:36:04;;;;;;;;;;;14.80;75.80;;;;;;5116530;28;19939;-65
2022/05/24 07:38:29;;;;;;;;;;;14.90;76.30;;;;;;5115405;28;19958;-65
2022/05/24 07:46:43;;;;;;;;;;;14.90;72.00;;;;;;5074099;28;19913;-65
2022/05/24 07:49:09;;;;;;;;;;;15.00;72.50;;;;;;5074129;28;19909;-65
2022/05/24 07:51:34;;;;;;;;;;;15.00;71.30;;;;;;5093506;28;19908;-65
2022/05/24 07:54:00;;;;;;;;;;;15.00;71.20;;;;;;5116131;28;19908;-64
2022/05/24 07:56:25;;;;;;;;;;;15.00;71.70;;;;;;5116062;28;19908;-65
2022/05/24 07:58:51;;;;;;;;;;;15.10;72.60;;;;;;5116106;28;19912;-64
2022/05/24 08:01:17;;;;;;;;;;;15.30;73.60;;;;;;5115993;28;19908;-64
2022/05/24 08:03:42;;;;;;;;;;;15.30;72.60;;;;;;5115077;28;19908;-65
2022/05/24 08:06:10;;;;;;;;;;;15.30;70.30;;;;;;5115906;28;19908;-65
2022/05/24 08:08:36;;;;;;;;;;;15.30;71.00;;;;;;5115910;28;19904;-65
2022/05/24 08:11:01;;;;;;;;;;;15.40;70.00;;;;;;5115836;28;19930;-65
2022/05/24 08:13:27;;;;;;;;;;;15.30;70.10;;;;;;5115817;28;19911;-64
2022/05/24 08:15:54;;;;;;;;;;;15.30;69.60;;;;;;5115765;28;19904;-65
2022/05/24 08:18:20;;;;;;;;;;;15.30;69.60;;;;;;5115736;28;19939;-65
2022/05/24 08:20:46;;;;;;;;;;;15.40;70.80;;;;;;5115704;28;19915;-65
2022/05/24 08:23:12;;;;;;;;;;;15.40;69.90;;;;;;5115646;28;19904;-65
2022/05/24 08:25:38;;;;;;;;;;;15.50;72.50;;;;;;5115255;28;19988;-66
2022/05/24 08:28:07;;;;;;;;;;;15.60;72.60;;;;;;5115461;28;19967;-65
2022/05/24 08:30:34;;;;;;;;;;;15.70;69.70;;;;;;5115456;28;19925;-65
2022/05/24 08:33:04;;;;;;;;;;;15.70;71.90;;;;;;5115450;28;19904;-65
2022/05/24 08:35:30;;;;;;;;;;;15.90;69.80;;;;;;5114324;28;19939;-65
2022/05/24 08:37:56;;;;;;;;;;;15.90;68.90;;;;;;5114283;28;19904;-65
2022/05/24 08:40:22;;;;;;;;;;;15.90;69.20;;;;;;5115250;28;19995;-65
2022/05/24 08:43:11;;;;;;;;;;;15.90;69.90;;;;;;5115222;28;19916;-65
2022/05/24 08:48:51;;;;;;;;;;;16.00;68.80;;;;;;5115344;28;19950;-65
2022/05/24 08:51:22;;;;;;;;;;;16.00;67.60;;;;;;5115105;28;19904;-65
2022/05/24 08:53:50;;;;;;;;;;;16.00;68.00;;;;;;5115127;28;19943;-65
2022/05/24 08:56:28;;;;;;;;;;;15.80;67.00;;;;;;5115004;28;19904;-65
2022/05/24 08:59:20;;;;;;;;;;;15.70;68.60;;;;;;5115106;28;19904;-65
2022/05/24 09:01:46;;;;;;;;;;;15.80;69.00;;;;;;5098726;28;19974;-65
2022/05/24 09:04:12;;;;;;;;;;;15.90;66.70;;;;;;5113700;28;19904;-65
2022/05/24 09:06:43;;;;;;;;;;;15.90;65.60;;;;;;5113748;28;19908;-65
2022/05/24 09:09:28;;;;;;;;;;;15.90;66.80;;;;;;5114809;28;19910;-65
2022/05/24 09:12:04;;;;;;;;;;;15.90;65.30;;;;;;5114688;28;19947;-65
2022/05/24 09:14:38;;;;;;;;;;;15.90;66.30;;;;;;5114336;28;19904;-65
2022/05/24 09:17:15;;;;;;;;;;;15.80;66.40;;;;;;5114674;28;19904;-65
2022/05/24 09:19:42;;;;;;;;;;;15.70;67.70;;;;;;5114506;28;19908;-65
2022/05/24 09:22:10;;;;;;;;;;;15.60;68.00;;;;;;5114527;28;19904;-65
2022/05/24 09:24:38;;;;;;;;;;;15.50;67.70;;;;;;5114388;28;19908;-65
2022/05/24 09:27:07;;;;;;;;;;;15.40;67.40;;;;;;5114192;28;19923;-65
2022/05/24 09:29:34;;;;;;;;;;;15.40;68.60;;;;;;5113299;28;19904;-65
2022/05/24 09:32:03;;;;;;;;;;;15.40;68.30;;;;;;5114323;28;19935;-65
2022/05/24 09:34:30;;;;;;;;;;;15.40;69.70;;;;;;5114308;28;19904;-65
2022/05/24 09:37:02;;;;;;;;;;;15.60;69.40;;;;;;5114281;28;19908;-66
2022/05/24 09:39:30;;;;;;;;;;;15.70;67.70;;;;;;5114212;28;19903;-65
2022/05/24 09:42:02;;;;;;;;;;;15.70;69.30;;;;;;5113065;28;19903;-66
2022/05/24 09:44:28;;;;;;;;;;;15.70;66.30;;;;;;5114009;28;19904;-66
2022/05/24 09:46:55;;;;;;;;;;;15.70;67.40;;;;;;5114044;28;19925;-66
2022/05/24 09:49:40;;;;;;;;;;;15.80;67.50;;;;;;5113077;28;19919;-65
2022/05/24 09:52:11;;;;;;;;;;;16.00;67.90;;;;;;5113834;28;19927;-66
2022/05/24 09:54:49;;;;;;;;;;;16.10;66.70;;;;;;5114043;28;19975;-65
2022/05/24 09:57:20;;;;;;;;;;;16.20;67.70;;;;;;5114001;28;19964;-66
2022/05/24 09:59:57;;;;;;;;;;;16.20;67.40;;;;;;5113997;28;19943;-66
2022/05/24 10:02:23;;;;;;;;;;;16.20;66.20;;;;;;5112893;28;19926;-65
2022/05/24 10:04:48;;;;;;;;;;;16.20;63.20;;;;;;5113808;28;19975;-66
2022/05/24 10:07:24;;;;;;;;;;;16.00;63.60;;;;;;5112958;28;19995;-66
2022/05/24 10:09:55;;;;;;;;;;;16.00;64.80;;;;;;5113821;28;19969;-66
2022/05/24 10:12:26;;;;;;;;;;;16.00;65.50;;;;;;5113874;28;19904;-66
2022/05/24 10:14:58;;;;;;;;;;;15.90;64.30;;;;;;5113896;28;19904;-65
2022/05/24 10:17:42;;;;;;;;;;;15.80;64.60;;;;;;5113739;28;19904;-65
2022/05/24 10:20:28;;;;;;;;;;;15.70;65.70;;;;;;5113703;28;19904;-66
2022/05/24 10:23:02;;;;;;;;;;;15.70;65.30;;;;;;5106121;28;19920;-65
2022/05/24 10:25:47;;;;;;;;;;;15.90;66.90;;;;;;5115449;28;19930;-66
2022/05/24 10:28:20;;;;;;;;;;;16.20;65.50;;;;;;5117827;28;19934;-65
2022/05/24 10:30:46;;;;;;;;;;;16.30;64.30;;;;;;5117848;28;19912;-65
2022/05/24 10:38:55;;;;;;;;;;;16.50;64.40;;;;;;5117695;28;19910;-65
2022/05/24 10:41:33;;;;;;;;;;;16.60;63.20;;;;;;5117584;28;19978;-65
2022/05/24 10:44:01;;;;;;;;;;;16.50;61.70;;;;;;5117595;28;19932;-65
2022/05/24 10:46:44;;;;;;;;;;;16.40;62.10;;;;;;5117424;28;19908;-65
2022/05/24 10:49:16;;;;;;;;;;;16.20;63.60;;;;;;5117474;28;19911;-65
2022/05/24 10:51:48;;;;;;;;;;;16.20;62.80;;;;;;5117334;28;19915;-66
2022/05/24 10:54:32;;;;;;;;;;;16.20;65.60;;;;;;5117383;28;19969;-66
2022/05/24 10:57:04;;;;;;;;;;;16.10;66.40;;;;;;5116210;28;19904;-65
2022/05/24 10:59:36;;;;;;;;;;;16.20;67.70;;;;;;5116185;28;19980;-65
2022/05/24 11:02:20;;;;;;;;;;;16.20;68.10;;;;;;5117308;28;19929;-65
2022/05/24 11:04:49;;;;;;;;;;;16.30;68.40;;;;;;5117193;28;19919;-65
2022/05/24 11:07:16;;;;;;;;;;;16.30;67.50;;;;;;5117107;28;19946;-65
2022/05/24 11:09:46;;;;;;;;;;;16.40;67.50;;;;;;5117046;28;19904;-65
2022/05/24 11:12:16;;;;;;;;;;;16.30;66.50;;;;;;5117036;28;19904;-65
2022/05/24 11:14:51;;;;;;;;;;;16.30;66.40;;;;;;5117020;28;19948;-65
2022/05/24 11:17:18;;;;;;;;;;;16.40;65.00;;;;;;5116956;28;19904;-65
2022/05/24 11:19:51;;;;;;;;;;;16.40;64.70;;;;;;5116838;28;19926;-66
2022/05/24 11:22:23;;;;;;;;;;;16.60;64.50;;;;;;5116817;28;19904;-65
2022/05/24 11:24:51;;;;;;;;;;;16.90;64.60;;;;;;5116679;28;19939;-65
2022/05/24 11:27:22;;;;;;;;;;;17.00;64.90;;;;;;5115694;28;19938;-65
2022/05/24 11:29:50;;;;;;;;;;;17.10;65.30;;;;;;5115434;28;19904;-65
2022/05/24 11:32:30;;;;;;;;;;;17.20;64.70;;;;;;5115460;28;20278;-65
2022/05/24 11:34:57;;;;;;;;;;;17.30;63.60;;;;;;5115460;28;19911;-66
2022/05/24 11:37:30;;;;;;;;;;;17.50;64.40;;;;;;5115000;28;19904;-66
2022/05/24 11:39:55;;;;;;;;;;;17.70;63.20;;;;;;5114244;28;19904;-66
2022/05/24 11:42:21;;;;;;;;;;;17.90;61.70;;;;;;5115211;28;19908;-66
2022/05/24 11:44:47;;;;;;;;;;;17.90;60.30;;;;;;5115132;28;19966;-66
2022/05/24 11:47:32;;;;;;;;;;;17.90;59.70;;;;;;5115217;28;19904;-65
2022/05/24 11:49:58;;;;;;;;;;;17.90;59.10;;;;;;5114118;28;19926;-65
2022/05/24 11:52:43;;;;;;;;;;;18.00;59.60;;;;;;5114131;28;19929;-65
2022/05/24 11:55:09;;;;;;;;;;;18.00;59.80;;;;;;5115046;28;19919;-65
2022/05/24 11:57:39;;;;;;;;;;;18.10;58.50;;;;;;5114084;28;19971;-65
2022/05/24 12:00:05;;;;;;;;;;;18.20;59.40;;;;;;5115136;28;19911;-65
2022/05/24 12:08:29;;;;;;;;;;;18.30;57.80;;;;;;5115215;28;19926;-65
2022/05/24 12:11:04;;;;;;;;;;;18.20;56.60;;;;;;5114856;28;19904;-65
2022/05/24 12:13:32;;;;;;;;;;;18.10;55.60;;;;;;5114895;28;19912;-65
2022/05/24 12:15:59;;;;;;;;;;;17.90;56.10;;;;;;5113806;28;19911;-65
2022/05/24 12:18:55;;;;;;;;;;;17.80;56.70;;;;;;5114760;28;19904;-65
2022/05/24 12:21:39;;;;;;;;;;;17.70;57.20;;;;;;5100477;28;19904;-65
2022/05/24 12:24:25;;;;;;;;;;;17.70;57.90;;;;;;5113604;28;20424;-65
2022/05/24 12:27:14;;;;;;;;;;;17.70;57.20;;;;;;5057441;28;1288434;-65
2022/05/24 12:29:40;;;;;;;;;;;18.00;56.90;;;;;;5115644;28;19936;-65
2022/05/24 12:32:06;;;;;;;;;;;18.20;55.70;;;;;;5115496;28;20274;-66
2022/05/24 12:34:34;;;;;;;;;;;18.40;54.20;;;;;;5115423;28;19915;-66
2022/05/24 12:37:04;;;;;;;;;;;18.50;55.90;;;;;;5115414;28;19904;-66
2022/05/24 12:39:33;;;;;;;;;;;18.60;54.50;;;;;;5115484;28;19904;-67
2022/05/24 12:42:00;;;;;;;;;;;18.60;54.60;;;;;;5115326;28;19908;-63
2022/05/24 12:44:32;;;;;;;;;;;18.40;53.10;;;;;;5115150;28;19904;-62
2022/05/24 12:46:58;;;;;;;;;;;18.30;53.30;;;;;;5113788;28;19911;-66
2022/05/24 12:49:25;;;;;;;;;;;18.20;53.80;;;;;;5114651;28;19904;-66
2022/05/24 12:51:55;;;;;;;;;;;18.20;54.60;;;;;;5115129;28;19904;-66
2022/05/24 12:54:29;;;;;;;;;;;18.20;55.70;;;;;;5114059;28;19904;-65
2022/05/24 12:57:00;;;;;;;;;;;18.20;55.70;;;;;;5113925;28;19911;-65
2022/05/24 12:59:31;;;;;;;;;;;18.10;53.00;;;;;;5114973;28;19908;-65
2022/05/24 13:01:56;;;;;;;;;;;18.10;54.80;;;;;;5114925;28;19904;-66
2022/05/24 13:04:27;;;;;;;;;;;18.00;54.70;;;;;;5114740;28;19912;-66
2022/05/24 13:06:53;;;;;;;;;;;17.80;53.80;;;;;;5114952;28;19912;-65
2022/05/24 13:09:26;;;;;;;;;;;17.60;55.20;;;;;;5114795;28;20034;-65
2022/05/24 13:11:54;;;;;;;;;;;17.40;61.60;;;;;;5113493;28;19904;-65
2022/05/24 13:14:32;;;;;;;;;;;16.90;65.50;;;;;;5114755;28;19926;-64
2022/05/24 13:16:57;;;;;;;;;;;16.70;67.60;;;;;;5114654;28;19904;-65
2022/05/24 13:19:23;;;;;;;;;;;16.40;70.10;;;;;;5114607;28;19915;-64
2022/05/24 13:21:55;;;;;;;;;;;16.30;71.70;;;;;;5114516;28;19915;-65
2022/05/24 13:24:20;;;;;;;;;;;16.30;70.90;;;;;;5114505;28;19904;-65
2022/05/24 13:26:59;;;;;;;;;;;16.30;70.80;;;;;;5114212;28;19920;-64
2022/05/24 13:29:29;;;;;;;;;;;16.40;71.20;;;;;;5114415;28;19908;-64
2022/05/24 13:34:59;;;;;;;;;;;16.80;70.70;;;;;;5114510;28;19915;-64
2022/05/24 13:37:26;;;;;;;;;;;17.00;71.00;;;;;;5114289;28;19904;-65
2022/05/24 13:39:53;;;;;;;;;;;17.10;68.70;;;;;;5114117;28;19908;-64
2022/05/24 13:42:24;;;;;;;;;;;17.10;68.10;;;;;;5114188;28;19904;-65
2022/05/24 13:45:06;;;;;;;;;;;17.10;67.30;;;;;;5114005;28;19915;-64
2022/05/24 13:47:39;;;;;;;;;;;17.10;68.60;;;;;;5114144;28;19908;-64
2022/05/24 13:50:23;;;;;;;;;;;17.10;67.90;;;;;;5114122;28;19954;-64
2022/05/24 13:52:48;;;;;;;;;;;17.10;67.50;;;;;;5113046;28;20259;-64
2022/05/24 13:55:24;;;;;;;;;;;17.00;68.20;;;;;;5113986;28;19911;-65
2022/05/24 13:57:58;;;;;;;;;;;17.10;69.20;;;;;;5114176;28;19905;-64
2022/05/24 14:00:24;;;;;;;;;;;17.20;69.30;;;;;;5112615;28;19916;-65
2022/05/24 14:02:53;;;;;;;;;;;17.40;69.30;;;;;;5113936;28;19947;-65
2022/05/24 14:05:23;;;;;;;;;;;17.50;68.60;;;;;;5113828;28;19908;-65
2022/05/24 14:07:49;;;;;;;;;;;17.60;67.70;;;;;;5113878;28;19904;-63
2022/05/24 14:10:14;;;;;;;;;;;17.60;63.30;;;;;;5113812;28;19919;-64
2022/05/24 14:12:42;;;;;;;;;;;17.40;65.40;;;;;;5112825;28;19908;-66
2022/05/24 14:15:07;;;;;;;;;;;17.40;65.60;;;;;;5113831;28;19908;-63
2022/05/24 14:17:33;;;;;;;;;;;17.20;64.20;;;;;;5113783;28;19931;-63
2022/05/24 14:19:58;;;;;;;;;;;17.30;64.80;;;;;;5113757;28;19958;-63
2022/05/24 14:22:24;;;;;;;;;;;17.20;64.10;;;;;;5113720;28;19908;-63
2022/05/24 14:24:50;;;;;;;;;;;17.10;62.60;;;;;;5113651;28;19927;-63
2022/05/24 14:27:16;;;;;;;;;;;17.10;63.10;;;;;;5112629;28;19952;-65
2022/05/24 14:29:45;;;;;;;;;;;17.20;64.10;;;;;;5112677;28;19912;-65
2022/05/24 14:32:10;;;;;;;;;;;17.40;64.60;;;;;;5113664;28;19915;-66
2022/05/24 14:34:36;;;;;;;;;;;17.50;64.90;;;;;;5113742;28;19904;-66
2022/05/24 14:37:01;;;;;;;;;;;17.70;63.70;;;;;;5113615;28;19912;-66
2022/05/24 14:39:27;;;;;;;;;;;17.80;63.80;;;;;;5113710;28;20335;-66
2022/05/24 14:41:53;;;;;;;;;;;18.00;63.80;;;;;;5112684;28;19943;-64
2022/05/24 14:44:26;;;;;;;;;;;18.00;60.20;;;;;;5113504;28;19908;-64
2022/05/24 14:46:53;;;;;;;;;;;18.00;61.10;;;;;;5113535;28;19948;-66
2022/05/24 14:49:18;;;;;;;;;;;18.00;59.60;;;;;;5113496;28;20353;-66
2022/05/24 14:51:52;;;;;;;;;;;17.90;60.70;;;;;;5112499;28;19926;-65
2022/05/24 14:54:19;;;;;;;;;;;17.80;60.10;;;;;;5113476;28;19904;-65
2022/05/24 14:56:45;;;;;;;;;;;17.60;61.00;;;;;;5113427;28;19913;-65